Time;durP1;ratioP1;P1;durP2;ratioP2;P2;SDS_P1;SDS_P2;PMS_P1;PMS_P2;Temp;Humidity;BMP_temperature;BMP_pressure;BME280_temperature;BME280_humidity;BME280_pressure;Samples;Min_cycle;Max_cycle;Signal;HPM_P1;HPM_P2
2022/05/24 07:13:03;;;;;;;4.03;2.20;;;;;;;;;;12922333;22;1415296;-83
2022/05/24 07:18:04;;;;;;;3.85;2.10;;;;;;;;;;12914846;23;20016;-83
2022/05/24 07:23:16;;;;;;;4.13;2.42;;;;;;;;;;12920091;23;20425;-82
2022/05/24 07:28:17;;;;;;;3.67;2.38;;;;;;;;;;12926798;23;20008;-81
2022/05/24 07:33:18;;;;;;;3.55;2.30;;;;;;;;;;12936087;23;20078;-82
2022/05/24 07:38:19;;;;;;;4.35;2.47;;;;;;;;;;12944207;23;20008;-81
2022/05/24 07:48:41;;;;;;;3.08;2.30;;;;;;;;;;12946110;23;20086;-83
2022/05/24 07:53:47;;;;;;;3.97;1.80;;;;;;;;;;12811612;23;20108;-83
2022/05/24 07:58:47;;;;;;;4.30;2.20;;;;;;;;;;12808396;23;20036;-82
2022/05/24 08:03:48;;;;;;;3.85;2.17;;;;;;;;;;12748413;23;20033;-81
2022/05/24 08:08:49;;;;;;;4.65;2.38;;;;;;;;;;12747003;23;20009;-82
2022/05/24 08:13:50;;;;;;;5.90;2.53;;;;;;;;;;12749928;23;19998;-82
2022/05/24 08:18:51;;;;;;;4.80;2.25;;;;;;;;;;12749431;23;20005;-82
2022/05/24 08:23:52;;;;;;;5.43;2.10;;;;;;;;;;12748983;23;20032;-82
2022/05/24 08:28:53;;;;;;;5.60;2.70;;;;;;;;;;12748939;23;20097;-84
2022/05/24 08:33:54;;;;;;;6.13;2.72;;;;;;;;;;12749059;23;20434;-85
2022/05/24 08:38:56;;;;;;;4.47;2.70;;;;;;;;;;12751242;23;20323;-85
2022/05/24 08:48:22;;;;;;;4.28;2.58;;;;;;;;;;12750387;23;20096;-85
2022/05/24 08:49:25;;;;;;;5.25;3.00;;;;;;;;;;12749147;23;20048;-84
2022/05/24 08:54:32;;;;;;;5.30;2.72;;;;;;;;;;12748933;23;20347;-84
2022/05/24 08:59:38;;;;;;;4.00;2.30;;;;;;;;;;12746558;23;20024;-85
2022/05/24 09:04:39;;;;;;;3.88;2.17;;;;;;;;;;12749074;23;20049;-84
2022/05/24 09:09:46;;;;;;;4.40;2.50;;;;;;;;;;12750441;23;20498;-85
2022/05/24 09:14:53;;;;;;;3.78;2.30;;;;;;;;;;12751032;23;20029;-85
2022/05/24 09:19:54;;;;;;;3.75;1.90;;;;;;;;;;12761535;23;20016;-85
2022/05/24 09:24:56;;;;;;;4.72;1.98;;;;;;;;;;12751863;23;20028;-85
2022/05/24 09:30:21;;;;;;;3.70;2.20;;;;;;;;;;12758373;23;20342;-85
2022/05/24 09:35:26;;;;;;;3.10;1.75;;;;;;;;;;12754071;23;20061;-85
2022/05/24 09:40:27;;;;;;;4.20;2.75;;;;;;;;;;12766011;23;20005;-82
2022/05/24 09:45:36;;;;;;;3.47;2.13;;;;;;;;;;12773005;23;20016;-83
2022/05/24 09:50:39;;;;;;;3.55;2.25;;;;;;;;;;12764348;23;20025;-83
2022/05/24 09:55:52;;;;;;;4.35;2.00;;;;;;;;;;12773306;23;20025;-84
2022/05/24 10:01:30;;;;;;;5.93;2.08;;;;;;;;;;12771458;23;20017;-83
2022/05/24 10:06:31;;;;;;;4.60;2.40;;;;;;;;;;12761068;23;20014;-83
2022/05/24 10:11:40;;;;;;;4.15;2.10;;;;;;;;;;12755070;23;20085;-86
2022/05/24 10:16:49;;;;;;;6.22;2.60;;;;;;;;;;12755527;23;20001;-84
2022/05/24 10:21:59;;;;;;;2.85;2.00;;;;;;;;;;12753213;23;20009;-84
2022/05/24 10:27:04;;;;;;;4.65;2.42;;;;;;;;;;12751701;23;20006;-83
2022/05/24 10:38:17;;;;;;;4.15;2.30;;;;;;;;;;12760154;23;20016;-84
2022/05/24 10:43:37;;;;;;;2.85;1.60;;;;;;;;;;12755283;23;20010;-83
2022/05/24 10:48:48;;;;;;;2.72;1.60;;;;;;;;;;12756986;23;20024;-83
2022/05/24 10:53:53;;;;;;;3.00;1.30;;;;;;;;;;12756741;23;20118;-83
2022/05/24 10:58:58;;;;;;;2.58;1.60;;;;;;;;;;12759913;23;20009;-83
2022/05/24 11:04:04;;;;;;;3.97;1.67;;;;;;;;;;12761974;23;20076;-85
2022/05/24 11:09:14;;;;;;;2.55;1.20;;;;;;;;;;12760422;23;20073;-86
2022/05/24 11:14:21;;;;;;;2.00;1.27;;;;;;;;;;12763327;23;20002;-84
2022/05/24 11:19:25;;;;;;;2.35;1.20;;;;;;;;;;12765746;23;20013;-84
2022/05/24 11:24:38;;;;;;;2.78;1.35;;;;;;;;;;12754956;23;20009;-83
2022/05/24 11:29:58;;;;;;;3.83;2.25;;;;;;;;;;12754984;23;20549;-84
2022/05/24 11:35:03;;;;;;;4.82;1.88;;;;;;;;;;12755125;23;20013;-84
2022/05/24 11:40:23;;;;;;;3.67;2.00;;;;;;;;;;12764331;23;20319;-80
2022/05/24 11:45:30;;;;;;;7.20;4.75;;;;;;;;;;12762394;23;20009;-81
2022/05/24 11:50:31;;;;;;;4.90;4.13;;;;;;;;;;12761019;23;20025;-80
2022/05/24 11:55:44;;;;;;;4.82;3.42;;;;;;;;;;12762268;23;19998;-80
2022/05/24 12:00:55;;;;;;;3.88;2.75;;;;;;;;;;12762912;23;20045;-80
2022/05/24 12:11:36;;;;;;;4.07;2.60;;;;;;;;;;12762799;23;20017;-81
2022/05/24 12:16:45;;;;;;;2.60;1.90;;;;;;;;;;12767866;23;20064;-82
2022/05/24 12:21:55;;;;;;;2.20;1.48;;;;;;;;;;12760018;23;20005;-83
2022/05/24 12:27:12;;;;;;;3.22;1.45;;;;;;;;;;12764147;23;20030;-81
2022/05/24 12:32:16;;;;;;;2.17;1.50;;;;;;;;;;12764634;23;20109;-81
2022/05/24 12:37:23;;;;;;;2.90;2.33;;;;;;;;;;12763168;23;20096;-82
2022/05/24 12:42:24;;;;;;;2.95;1.73;;;;;;;;;;12765184;23;20045;-81
2022/05/24 12:47:26;;;;;;;3.55;2.10;;;;;;;;;;12763402;23;20005;-82
2022/05/24 12:52:28;;;;;;;3.38;1.58;;;;;;;;;;12761696;23;20009;-81
2022/05/24 12:57:30;;;;;;;4.38;1.70;;;;;;;;;;12767696;23;20052;-82
2022/05/24 13:02:31;;;;;;;4.35;2.03;;;;;;;;;;12759912;23;20388;-81
2022/05/24 13:07:38;;;;;;;2.97;1.25;;;;;;;;;;12758115;23;20430;-81
2022/05/24 13:12:39;;;;;;;2.75;1.60;;;;;;;;;;12760661;23;20006;-81
2022/05/24 13:17:43;;;;;;;2.50;1.50;;;;;;;;;;12757361;23;20054;-81
2022/05/24 13:22:45;;;;;;;2.17;1.55;;;;;;;;;;12751364;23;20394;-80
2022/05/24 13:27:53;;;;;;;3.63;1.58;;;;;;;;;;12749559;23;20013;-82
2022/05/24 13:38:14;;;;;;;2.53;1.25;;;;;;;;;;12750752;23;20385;-80
2022/05/24 13:43:30;;;;;;;2.50;1.20;;;;;;;;;;12747218;23;20355;-84
2022/05/24 13:48:39;;;;;;;2.25;1.30;;;;;;;;;;12747217;23;20020;-84
2022/05/24 13:53:40;;;;;;;2.53;1.20;;;;;;;;;;12749337;23;20016;-84
2022/05/24 13:58:46;;;;;;;1.52;0.98;;;;;;;;;;12748474;23;20006;-85
2022/05/24 14:03:53;;;;;;;1.92;1.10;;;;;;;;;;12749838;23;20009;-85
2022/05/24 14:08:56;;;;;;;2.63;1.40;;;;;;;;;;12750774;23;20052;-82
2022/05/24 14:13:58;;;;;;;2.03;0.80;;;;;;;;;;12746422;23;20061;-82
2022/05/24 14:19:02;;;;;;;2.30;1.10;;;;;;;;;;12744774;23;20006;-83
2022/05/24 14:24:06;;;;;;;2.60;0.82;;;;;;;;;;12745684;23;20021;-80
2022/05/24 14:29:07;;;;;;;1.60;1.10;;;;;;;;;;12751531;23;20006;-81
2022/05/24 14:34:10;;;;;;;2.03;0.90;;;;;;;;;;12750111;23;19997;-84
2022/05/24 14:39:12;;;;;;;2.08;1.10;;;;;;;;;;12751640;23;20006;-84
2022/05/24 14:44:23;;;;;;;1.85;1.05;;;;;;;;;;12757591;23;20005;-85
2022/05/24 14:49:25;;;;;;;1.65;0.93;;;;;;;;;;12758470;23;20017;-84
2022/05/24 14:54:26;;;;;;;1.75;1.10;;;;;;;;;;12761168;23;20056;-85
2022/05/24 14:59:27;;;;;;;2.42;1.45;;;;;;;;;;12757650;23;20005;-84
2022/05/24 15:04:28;;;;;;;1.70;1.15;;;;;;;;;;12750314;23;20005;-84
2022/05/24 15:20:16;;;;;;;1.88;0.90;;;;;;;;;;12750282;23;20433;-85
2022/05/24 15:25:18;;;;;;;3.28;1.48;;;;;;;;;;12748605;23;20004;-84
2022/05/24 15:30:20;;;;;;;2.65;1.17;;;;;;;;;;12750979;23;20012;-83
2022/05/24 15:35:24;;;;;;;2.05;1.30;;;;;;;;;;12752630;23;20030;-86
2022/05/24 15:40:26;;;;;;;2.72;1.20;;;;;;;;;;12748169;23;20342;-82
2022/05/24 15:45:27;;;;;;;1.80;1.10;;;;;;;;;;12749825;23;20002;-81
2022/05/24 15:50:28;;;;;;;2.38;1.30;;;;;;;;;;12751679;23;20401;-81
2022/05/24 15:55:29;;;;;;;1.88;1.05;;;;;;;;;;12750718;23;20002;-82
2022/05/24 16:00:31;;;;;;;2.38;1.33;;;;;;;;;;12752650;23;20156;-83
2022/05/24 16:10:52;;;;;;;2.33;1.40;;;;;;;;;;12752660;23;20014;-83
2022/05/24 16:15:54;;;;;;;2.35;1.20;;;;;;;;;;12750216;23;20010;-83
2022/05/24 16:20:55;;;;;;;1.83;1.30;;;;;;;;;;12749829;23;20008;-82
